Terminal Aerodrome Forecast
Issued by NWS

Home | Current Version | Previous Version | Text Only | Print | Product List | Glossary On
Versions: 1 2 3 4 5 6 7 8 9 10 11 12 13 14 15 16 17 18 19 20
000
FTUS42 KTBW 060500
TAFPIE
TAF
KPIE 060531Z 0606/0706 24007KT 6SM BR SCT005 OVC010
      TEMPO 0606/0610 3SM BR BKN004 OVC010
     FM061000 34008KT 3SM BR SCT005 BKN010
     FM061100 35007KT 6SM BR SCT005 BKN015
     FM061500 02006KT P6SM SCT015 BKN090
     FM062000 02007KT P6SM VCSH BKN030=

USA.gov is the U.S. government's official web portal to all federal, state and local government web resources and services.